Time;durP1;ratioP1;P1;durP2;ratioP2;P2;SDS_P1;SDS_P2;PMS_P1;PMS_P2;Temp;Humidity;BMP_temperature;BMP_pressure;BME280_temperature;BME280_humidity;BME280_pressure;Samples;Min_cycle;Max_cycle;Signal;HPM_P1;HPM_P2
2022/10/24 00:00:15;;;;;;;6.50;4.07;;;13.80;99.90;;;;;;5015264;28;20175;-68
2022/10/24 00:02:40;;;;;;;5.70;4.40;;;13.80;99.90;;;;;;4995282;28;20693;-69
2022/10/24 00:05:06;;;;;;;6.80;4.97;;;13.90;99.90;;;;;;4995192;28;20416;-68
2022/10/24 00:07:32;;;;;;;9.93;5.00;;;13.80;99.90;;;;;;4995330;28;20180;-68
2022/10/24 00:09:57;;;;;;;5.57;4.40;;;13.80;99.90;;;;;;4995173;28;20219;-68
2022/10/24 00:12:23;;;;;;;5.60;4.70;;;13.80;99.90;;;;;;4995370;28;20585;-69
2022/10/24 00:14:48;;;;;;;6.57;4.30;;;13.90;99.90;;;;;;4996557;28;20541;-68
2022/10/24 00:17:14;;;;;;;8.63;4.90;;;13.90;99.90;;;;;;4995874;28;20169;-68
2022/10/24 00:19:39;;;;;;;7.80;4.60;;;13.80;99.90;;;;;;4995498;28;20257;-69
2022/10/24 00:22:05;;;;;;;4.77;4.13;;;13.80;99.90;;;;;;4995241;28;20566;-68
2022/10/24 00:24:30;;;;;;;5.57;4.23;;;13.80;99.90;;;;;;4995035;28;20158;-68
2022/10/24 00:26:56;;;;;;;7.43;4.33;;;13.80;99.90;;;;;;4995105;28;20173;-68
2022/10/24 00:29:22;;;;;;;6.00;4.63;;;13.80;99.90;;;;;;4997984;28;20268;-68
2022/10/24 00:31:48;;;;;;;9.80;4.30;;;13.80;99.90;;;;;;5014758;28;20569;-69
2022/10/24 00:34:14;;;;;;;6.43;5.10;;;13.80;99.90;;;;;;5014256;28;20721;-68
2022/10/24 00:36:39;;;;;;;6.70;4.67;;;13.80;99.90;;;;;;5013975;28;20455;-68
2022/10/24 00:39:05;;;;;;;7.63;5.50;;;13.80;99.90;;;;;;5014168;28;21102;-68
2022/10/24 00:41:35;;;;;;;7.13;5.27;;;13.80;99.90;;;;;;5014319;28;20794;-68
2022/10/24 00:44:32;;;;;;;6.93;5.53;;;13.70;99.90;;;;;;5014001;28;20208;-68
2022/10/24 00:47:12;;;;;;;8.00;6.60;;;13.70;99.90;;;;;;5005877;28;20837;-68
2022/10/24 00:49:42;;;;;;;7.20;5.60;;;13.70;99.90;;;;;;5014089;28;20405;-69
2022/10/24 00:52:08;;;;;;;6.80;4.90;;;13.70;99.90;;;;;;5013375;28;20399;-69
2022/10/24 00:54:36;;;;;;;6.77;5.80;;;13.60;99.90;;;;;;5013230;28;20439;-69
2022/10/24 00:57:30;;;;;;;7.40;5.33;;;13.60;99.90;;;;;;5013897;28;20411;-68
2022/10/24 01:00:00;;;;;;;7.57;5.63;;;13.60;99.90;;;;;;5013876;28;20407;-69
2022/10/24 01:02:26;;;;;;;7.83;5.30;;;13.60;99.90;;;;;;5013852;28;20470;-68
2022/10/24 01:04:53;;;;;;;6.00;5.40;;;13.50;99.90;;;;;;5013682;28;20447;-68
2022/10/24 01:07:49;;;;;;;6.90;5.53;;;13.50;99.90;;;;;;5013203;28;20176;-68
2022/10/24 01:10:29;;;;;;;6.40;5.50;;;13.50;99.90;;;;;;4977412;28;20425;-68
2022/10/24 01:13:07;;;;;;;7.60;5.27;;;13.50;99.90;;;;;;5013647;28;20864;-69
2022/10/24 01:15:42;;;;;;;6.53;5.40;;;13.50;99.90;;;;;;5013395;28;20443;-69
2022/10/24 01:18:26;;;;;;;5.80;5.20;;;13.40;99.90;;;;;;5013680;28;20409;-68
2022/10/24 01:21:11;;;;;;;6.27;5.00;;;13.40;99.90;;;;;;5013503;28;20410;-68
2022/10/24 01:24:00;;;;;;;6.00;4.80;;;13.40;99.90;;;;;;5013884;28;20415;-68
2022/10/24 01:26:41;;;;;;;4.97;3.87;;;13.30;99.90;;;;;;4993621;28;20463;-69
2022/10/24 01:29:33;;;;;;;5.23;4.33;;;13.40;99.90;;;;;;4993996;28;20478;-68
2022/10/24 01:32:10;;;;;;;9.57;5.70;;;13.40;99.90;;;;;;4993707;28;20531;-68
2022/10/24 01:34:56;;;;;;;6.13;5.20;;;13.50;99.90;;;;;;4993492;28;20407;-68
2022/10/24 01:37:34;;;;;;;6.73;5.37;;;13.50;99.90;;;;;;4993484;28;20535;-69
2022/10/24 01:40:16;;;;;;;9.07;6.60;;;13.50;99.90;;;;;;4993659;28;20487;-69
2022/10/24 01:42:44;;;;;;;8.07;5.70;;;13.50;99.90;;;;;;4993615;28;20451;-69
2022/10/24 01:45:17;;;;;;;8.67;5.97;;;13.50;99.90;;;;;;4993425;28;20907;-69
2022/10/24 01:47:48;;;;;;;8.73;5.57;;;13.50;99.90;;;;;;4993807;28;20408;-69
2022/10/24 01:50:17;;;;;;;9.33;6.10;;;13.50;99.90;;;;;;4993604;28;20885;-68
2022/10/24 01:52:46;;;;;;;6.17;5.30;;;13.50;99.90;;;;;;4993362;28;20619;-68
2022/10/24 01:55:11;;;;;;;6.53;5.77;;;13.40;99.90;;;;;;4993047;28;20813;-69
2022/10/24 01:57:38;;;;;;;5.70;5.13;;;13.40;99.90;;;;;;4993597;28;20422;-68
2022/10/24 02:00:06;;;;;;;7.53;5.60;;;13.40;99.90;;;;;;4993904;28;20169;-68
2022/10/24 02:02:44;;;;;;;10.10;4.70;;;13.40;99.90;;;;;;4993715;28;20427;-68
2022/10/24 02:05:23;;;;;;;6.77;5.00;;;13.40;99.90;;;;;;4992530;28;20948;-68
2022/10/24 02:07:55;;;;;;;8.47;4.63;;;13.40;99.90;;;;;;4992990;28;20426;-69
2022/10/24 02:10:26;;;;;;;5.90;5.17;;;13.30;99.90;;;;;;4993036;28;20412;-68
2022/10/24 02:13:14;;;;;;;6.77;5.73;;;13.30;99.90;;;;;;4993076;28;20430;-68
2022/10/24 02:15:47;;;;;;;6.30;5.70;;;13.30;99.90;;;;;;4992453;28;20459;-68
2022/10/24 02:18:13;;;;;;;7.73;5.17;;;13.20;99.90;;;;;;5001555;28;20396;-68
2022/10/24 02:20:55;;;;;;;5.47;4.87;;;13.20;99.90;;;;;;5012509;28;20442;-69
2022/10/24 02:23:44;;;;;;;5.10;4.57;;;13.20;99.90;;;;;;5012743;28;20184;-69
2022/10/24 02:26:20;;;;;;;6.07;4.60;;;13.10;99.90;;;;;;4993408;28;20406;-70
2022/10/24 02:28:49;;;;;;;7.07;4.70;;;13.10;99.90;;;;;;4994007;28;20404;-68
2022/10/24 02:31:20;;;;;;;5.30;4.40;;;13.10;99.90;;;;;;4993496;28;20479;-70
2022/10/24 02:33:48;;;;;;;7.70;5.13;;;13.00;99.90;;;;;;4995107;28;20439;-68
2022/10/24 02:36:17;;;;;;;7.17;4.70;;;13.00;99.90;;;;;;4993678;28;20486;-70
2022/10/24 02:38:46;;;;;;;8.90;5.33;;;13.00;99.90;;;;;;4994471;28;20436;-69
2022/10/24 02:41:16;;;;;;;7.77;4.77;;;13.00;99.90;;;;;;4993935;28;20408;-68
2022/10/24 02:43:44;;;;;;;6.40;4.70;;;13.00;99.90;;;;;;4995527;28;20443;-69
2022/10/24 02:46:12;;;;;;;5.97;5.20;;;12.90;99.90;;;;;;4994641;28;20423;-68
2022/10/24 02:48:42;;;;;;;5.10;4.37;;;13.00;99.90;;;;;;4993863;28;20423;-68
2022/10/24 02:51:08;;;;;;;6.70;4.53;;;12.90;99.90;;;;;;4992592;28;20929;-68
2022/10/24 02:53:35;;;;;;;6.07;5.13;;;12.90;99.90;;;;;;4992286;28;20428;-68
2022/10/24 02:56:01;;;;;;;5.93;4.83;;;12.90;99.90;;;;;;4992163;28;20506;-68
2022/10/24 02:58:27;;;;;;;11.90;5.57;;;12.90;99.90;;;;;;4992352;28;20922;-68
2022/10/24 03:00:52;;;;;;;5.27;4.77;;;12.90;99.90;;;;;;4992259;28;20405;-67
2022/10/24 03:03:18;;;;;;;5.70;5.00;;;12.90;99.90;;;;;;4992117;28;20185;-70
2022/10/24 03:05:44;;;;;;;6.27;5.33;;;12.90;99.90;;;;;;4992319;28;20643;-69
2022/10/24 03:08:10;;;;;;;7.80;4.67;;;12.80;99.90;;;;;;4992330;28;20177;-69
2022/10/24 03:10:35;;;;;;;6.13;4.67;;;12.80;99.90;;;;;;4992431;28;20607;-69
2022/10/24 03:13:02;;;;;;;5.10;4.40;;;12.80;99.90;;;;;;4994218;28;20440;-69
2022/10/24 03:15:28;;;;;;;8.07;5.33;;;12.80;99.90;;;;;;4994425;28;20196;-69
2022/10/24 03:17:53;;;;;;;7.37;5.13;;;12.80;99.90;;;;;;4998545;28;20898;-69
2022/10/24 03:20:19;;;;;;;6.17;4.87;;;12.90;99.90;;;;;;4997778;28;20651;-69
2022/10/24 03:22:44;;;;;;;7.20;4.60;;;12.90;99.90;;;;;;4996060;28;20240;-69
2022/10/24 03:25:10;;;;;;;8.13;4.97;;;12.90;99.90;;;;;;5007407;28;20180;-69
2022/10/24 03:27:36;;;;;;;9.33;4.53;;;12.90;99.90;;;;;;5015832;28;20271;-69
2022/10/24 03:30:03;;;;;;;6.53;5.73;;;12.80;99.90;;;;;;5015497;28;20410;-69
2022/10/24 03:32:28;;;;;;;8.40;4.73;;;12.90;99.90;;;;;;5015182;28;20510;-67
2022/10/24 03:34:54;;;;;;;7.80;5.30;;;12.80;99.90;;;;;;5015064;28;20530;-68
2022/10/24 03:37:19;;;;;;;5.70;4.53;;;12.80;99.90;;;;;;5015460;28;20247;-68
2022/10/24 03:39:45;;;;;;;7.80;5.80;;;12.80;99.90;;;;;;5015827;28;20173;-68
2022/10/24 03:42:11;;;;;;;4.63;4.13;;;12.80;99.90;;;;;;5015279;28;20172;-68
2022/10/24 03:44:36;;;;;;;6.63;4.57;;;12.80;99.90;;;;;;5015471;28;20168;-68
2022/10/24 03:47:02;;;;;;;6.60;4.70;;;12.80;99.90;;;;;;5015591;28;20179;-67
2022/10/24 03:49:27;;;;;;;5.73;4.57;;;12.70;99.90;;;;;;5015580;28;20519;-68
2022/10/24 03:51:53;;;;;;;7.27;4.53;;;12.80;99.90;;;;;;5013941;28;20643;-69
2022/10/24 03:54:18;;;;;;;4.80;4.07;;;12.70;99.90;;;;;;5014951;28;20175;-68
2022/10/24 03:56:46;;;;;;;4.67;3.93;;;12.80;99.90;;;;;;5014722;28;20207;-69
2022/10/24 03:59:12;;;;;;;6.87;4.90;;;12.70;99.90;;;;;;5014891;28;20176;-69
2022/10/24 04:01:38;;;;;;;5.70;5.03;;;12.70;99.90;;;;;;5015045;28;20457;-69
2022/10/24 04:04:03;;;;;;;9.47;5.60;;;12.70;99.90;;;;;;5014701;28;20188;-69
2022/10/24 04:06:29;;;;;;;4.63;3.80;;;12.60;99.90;;;;;;5014045;28;20172;-69
2022/10/24 04:08:55;;;;;;;6.50;4.70;;;12.60;99.90;;;;;;5014985;28;20183;-69
2022/10/24 04:11:21;;;;;;;5.43;4.60;;;12.70;99.90;;;;;;5014897;28;20563;-68
2022/10/24 04:13:47;;;;;;;6.27;4.20;;;12.60;99.90;;;;;;5014651;28;20434;-69
2022/10/24 04:16:13;;;;;;;6.07;4.50;;;12.60;99.90;;;;;;5011996;28;20470;-69
2022/10/24 04:18:38;;;;;;;5.67;4.40;;;12.60;99.90;;;;;;4995057;28;20172;-69
2022/10/24 04:21:04;;;;;;;4.20;3.80;;;12.50;99.90;;;;;;4994985;28;20255;-70
2022/10/24 04:23:34;;;;;;;5.03;4.30;;;12.60;99.90;;;;;;4995288;28;20299;-69
2022/10/24 04:26:00;;;;;;;6.27;4.33;;;12.50;99.90;;;;;;5013041;28;20351;-69
2022/10/24 04:28:26;;;;;;;11.03;7.07;;;12.50;99.90;;;;;;5014181;28;20498;-69
2022/10/24 04:30:56;;;;;;;6.90;5.80;;;12.50;99.90;;;;;;5014441;28;20188;-69
2022/10/24 04:33:22;;;;;;;6.53;4.70;;;12.50;99.90;;;;;;5014218;28;20473;-68
2022/10/24 04:35:48;;;;;;;5.83;5.10;;;12.40;99.90;;;;;;5013847;28;20521;-69
2022/10/24 04:38:14;;;;;;;5.67;4.63;;;12.50;99.90;;;;;;5014304;28;20423;-70
2022/10/24 04:40:39;;;;;;;7.83;5.97;;;12.50;99.90;;;;;;5014035;28;20406;-68
2022/10/24 04:43:05;;;;;;;6.50;5.20;;;12.50;99.90;;;;;;5013851;28;20263;-69
2022/10/24 04:45:30;;;;;;;7.13;4.87;;;12.60;99.90;;;;;;5013934;28;20184;-68
2022/10/24 04:47:56;;;;;;;7.87;4.70;;;12.60;99.90;;;;;;5014472;28;20598;-69
2022/10/24 04:50:21;;;;;;;6.00;4.10;;;12.50;99.90;;;;;;5014071;28;20180;-69
2022/10/24 04:52:47;;;;;;;7.83;4.50;;;12.60;99.90;;;;;;5014194;28;20274;-68
2022/10/24 04:55:12;;;;;;;9.50;3.73;;;12.60;99.90;;;;;;5013852;28;20204;-69
2022/10/24 04:57:38;;;;;;;5.10;4.20;;;12.60;99.90;;;;;;5013821;28;20180;-69
2022/10/24 05:00:04;;;;;;;4.80;4.17;;;12.60;99.90;;;;;;5013787;28;20599;-69
2022/10/24 05:02:30;;;;;;;5.53;4.60;;;12.50;99.90;;;;;;5013795;28;20200;-69
2022/10/24 05:04:55;;;;;;;7.50;4.00;;;12.60;99.90;;;;;;5012975;28;20464;-69
2022/10/24 05:07:21;;;;;;;7.10;4.60;;;12.60;99.90;;;;;;5013751;28;20175;-69
2022/10/24 05:09:46;;;;;;;8.80;4.97;;;12.60;99.90;;;;;;5013839;28;20195;-68
2022/10/24 05:12:13;;;;;;;6.73;4.20;;;12.60;99.90;;;;;;5013799;28;20542;-69
2022/10/24 05:14:38;;;;;;;5.80;4.63;;;12.70;99.90;;;;;;5013529;28;20180;-69
2022/10/24 05:17:04;;;;;;;5.83;5.23;;;12.70;99.90;;;;;;5013278;28;20414;-69
2022/10/24 05:19:29;;;;;;;5.93;4.20;;;12.70;99.90;;;;;;5013183;28;20238;-69
2022/10/24 05:21:55;;;;;;;7.33;5.20;;;12.70;99.90;;;;;;5014300;28;20168;-69
2022/10/24 05:24:20;;;;;;;5.40;4.13;;;12.70;99.90;;;;;;5013384;28;20199;-69
2022/10/24 05:26:45;;;;;;;5.73;4.60;;;12.70;99.90;;;;;;5013117;28;20172;-69
2022/10/24 05:29:11;;;;;;;4.20;3.80;;;12.70;99.90;;;;;;5013264;28;20172;-68
2022/10/24 05:31:37;;;;;;;5.20;4.20;;;12.70;99.90;;;;;;5013250;28;20255;-68
2022/10/24 05:34:02;;;;;;;5.23;3.70;;;12.70;99.90;;;;;;5013796;28;20200;-69
2022/10/24 05:36:28;;;;;;;7.27;4.33;;;12.70;99.90;;;;;;5013145;28;20578;-69
2022/10/24 05:38:53;;;;;;;5.60;4.40;;;12.70;99.90;;;;;;5012612;28;20226;-69
2022/10/24 05:41:18;;;;;;;6.47;4.30;;;12.80;99.90;;;;;;5013337;28;20169;-69
2022/10/24 05:43:44;;;;;;;5.83;4.60;;;12.80;99.90;;;;;;5012815;28;20210;-69
2022/10/24 05:46:09;;;;;;;4.70;3.90;;;12.80;99.90;;;;;;5029774;22;20295;-73
2022/10/24 05:48:35;;;;;;;5.23;4.43;;;12.80;99.90;;;;;;4993015;28;20169;-73
2022/10/24 05:51:00;;;;;;;8.13;5.50;;;12.80;99.90;;;;;;4993162;28;20252;-72
2022/10/24 05:53:26;;;;;;;5.10;4.30;;;12.80;99.90;;;;;;4991729;28;20260;-73
2022/10/24 05:55:52;;;;;;;7.30;5.17;;;12.80;99.90;;;;;;4992937;28;20209;-73
2022/10/24 05:58:21;;;;;;;7.00;4.87;;;12.80;99.90;;;;;;4993227;28;20654;-73
2022/10/24 06:00:48;;;;;;;5.87;5.30;;;12.70;99.90;;;;;;4993187;28;20252;-73
2022/10/24 06:03:13;;;;;;;6.40;4.30;;;12.80;99.90;;;;;;4993241;28;20413;-74
2022/10/24 06:05:39;;;;;;;5.93;4.73;;;12.70;99.90;;;;;;4992896;28;20420;-72
2022/10/24 06:08:05;;;;;;;4.97;4.30;;;12.80;99.90;;;;;;4993093;28;20180;-73
2022/10/24 06:10:30;;;;;;;7.50;4.00;;;12.70;99.90;;;;;;4991750;28;20184;-73
2022/10/24 06:12:56;;;;;;;8.33;5.30;;;12.70;99.90;;;;;;4993249;28;20177;-73
2022/10/24 06:15:21;;;;;;;4.90;4.40;;;12.70;99.90;;;;;;4992989;28;20197;-72
2022/10/24 06:17:47;;;;;;;5.90;4.30;;;12.80;99.90;;;;;;4993225;28;20183;-74
2022/10/24 06:20:12;;;;;;;5.70;5.10;;;12.80;99.90;;;;;;4991002;28;20213;-74
2022/10/24 06:22:39;;;;;;;10.73;5.83;;;12.80;99.90;;;;;;4973836;28;20253;-73
2022/10/24 06:25:05;;;;;;;8.83;5.07;;;12.90;99.90;;;;;;4972354;28;20198;-73
2022/10/24 06:27:30;;;;;;;8.53;5.50;;;12.90;99.90;;;;;;4973531;28;20433;-73
2022/10/24 06:29:56;;;;;;;6.53;4.90;;;12.90;99.90;;;;;;4972149;28;20939;-73
2022/10/24 06:32:21;;;;;;;6.57;4.80;;;12.90;99.90;;;;;;4973890;28;20204;-73
2022/10/24 06:34:47;;;;;;;8.10;4.50;;;13.00;99.90;;;;;;4974452;28;20188;-73
2022/10/24 06:37:12;;;;;;;8.27;5.37;;;13.00;99.90;;;;;;4971700;28;20193;-72
2022/10/24 06:39:38;;;;;;;6.40;4.90;;;13.00;99.90;;;;;;4976662;28;20161;-72
2022/10/24 06:42:03;;;;;;;8.60;4.37;;;13.10;99.90;;;;;;4992327;28;20639;-73
2022/10/24 06:44:29;;;;;;;6.67;5.40;;;13.10;99.90;;;;;;4992224;28;20169;-73
2022/10/24 06:46:55;;;;;;;7.37;4.43;;;13.10;99.90;;;;;;4992153;28;20262;-73
2022/10/24 06:49:21;;;;;;;7.10;4.73;;;13.10;99.90;;;;;;4992433;28;20416;-73
2022/10/24 06:51:46;;;;;;;5.93;4.57;;;13.20;99.90;;;;;;4992211;28;20647;-72
2022/10/24 06:54:12;;;;;;;6.80;5.33;;;13.20;99.90;;;;;;4992078;28;20177;-72
2022/10/24 06:56:38;;;;;;;6.40;4.90;;;13.30;99.90;;;;;;4991971;28;20224;-72
2022/10/24 06:59:13;;;;;;;5.87;5.07;;;13.30;99.90;;;;;;4975643;28;20516;-72
2022/10/24 07:01:39;;;;;;;6.40;4.63;;;13.40;99.90;;;;;;4972561;28;20169;-72
2022/10/24 07:04:04;;;;;;;8.23;5.30;;;13.40;99.90;;;;;;4972634;28;20427;-72
2022/10/24 07:06:31;;;;;;;9.10;5.40;;;13.40;99.90;;;;;;4972577;28;20225;-72
2022/10/24 07:08:59;;;;;;;6.43;4.80;;;13.50;99.90;;;;;;4972559;28;20226;-72
2022/10/24 07:11:25;;;;;;;7.43;4.63;;;13.50;99.90;;;;;;4972734;28;20456;-73
2022/10/24 07:13:51;;;;;;;7.30;5.13;;;13.50;99.90;;;;;;4972781;28;20425;-73
2022/10/24 07:16:17;;;;;;;4.90;4.40;;;13.60;99.90;;;;;;4977485;28;20467;-72
2022/10/24 07:18:43;;;;;;;5.43;4.50;;;13.60;99.90;;;;;;4992073;28;20243;-72
2022/10/24 07:21:19;;;;;;;6.00;4.60;;;13.60;99.90;;;;;;4992276;28;20460;-72
2022/10/24 07:23:45;;;;;;;4.57;4.17;;;13.60;99.90;;;;;;4992644;28;20411;-72
2022/10/24 07:26:13;;;;;;;5.10;3.80;;;13.70;99.90;;;;;;4993924;28;20820;-72
2022/10/24 07:28:40;;;;;;;7.07;4.43;;;13.80;99.90;;;;;;4992834;28;20552;-73
2022/10/24 07:31:06;;;;;;;7.50;4.40;;;13.80;99.90;;;;;;4996737;28;20547;-72
2022/10/24 07:33:31;;;;;;;9.60;3.63;;;13.90;99.90;;;;;;4992424;28;20424;-72
2022/10/24 07:35:58;;;;;;;4.70;4.00;;;14.00;99.90;;;;;;4992093;28;20460;-73
2022/10/24 07:38:23;;;;;;;6.60;4.40;;;14.10;99.90;;;;;;4995385;28;20169;-73
2022/10/24 07:40:49;;;;;;;5.03;3.60;;;14.20;99.90;;;;;;5004422;28;20422;-73
2022/10/24 07:43:16;;;;;;;4.90;4.00;;;14.20;99.90;;;;;;5011455;28;20180;-73
2022/10/24 07:45:42;;;;;;;3.90;3.43;;;14.30;99.90;;;;;;4991792;28;20600;-73
2022/10/24 07:48:08;;;;;;;4.80;4.03;;;14.50;99.90;;;;;;4990549;28;20845;-73
2022/10/24 07:50:39;;;;;;;5.93;3.50;;;14.50;99.90;;;;;;4991692;28;20438;-73
2022/10/24 07:53:05;;;;;;;5.50;3.50;;;14.70;99.90;;;;;;4991795;28;20413;-73
2022/10/24 07:55:30;;;;;;;2.60;2.40;;;14.70;99.90;;;;;;4991326;28;20461;-73
2022/10/24 07:57:56;;;;;;;3.30;2.57;;;14.80;99.90;;;;;;4972512;28;20207;-73
2022/10/24 08:00:23;;;;;;;5.20;3.53;;;15.00;99.90;;;;;;4974279;28;20170;-73
2022/10/24 08:02:49;;;;;;;5.40;4.80;;;15.10;99.90;;;;;;4993954;28;20262;-73
2022/10/24 08:05:14;;;;;;;6.13;3.00;;;15.30;99.90;;;;;;4993505;28;20520;-73
2022/10/24 08:07:40;;;;;;;7.10;3.30;;;15.30;99.90;;;;;;4995394;28;20243;-73
2022/10/24 08:10:09;;;;;;;5.80;3.50;;;15.30;99.90;;;;;;4993805;28;20786;-73
2022/10/24 08:12:34;;;;;;;3.20;2.90;;;15.30;99.90;;;;;;4994197;28;20175;-73
2022/10/24 08:15:00;;;;;;;4.00;2.30;;;15.50;99.90;;;;;;4993248;28;20512;-73
2022/10/24 08:17:25;;;;;;;3.10;2.90;;;15.60;99.90;;;;;;4998917;28;20209;-72
2022/10/24 08:19:51;;;;;;;3.97;3.00;;;15.70;99.90;;;;;;4992849;28;21060;-73
2022/10/24 08:22:17;;;;;;;5.30;2.80;;;15.90;99.90;;;;;;4993238;28;20179;-73
2022/10/24 08:24:43;;;;;;;2.50;2.30;;;16.00;99.90;;;;;;4992817;28;20275;-72
2022/10/24 08:27:09;;;;;;;6.57;3.03;;;16.10;99.90;;;;;;4987773;28;20209;-72
2022/10/24 08:29:35;;;;;;;7.07;2.87;;;16.20;99.90;;;;;;4995669;28;20416;-72
2022/10/24 08:32:01;;;;;;;6.30;3.17;;;16.50;99.90;;;;;;5021297;28;20203;-72
2022/10/24 08:34:26;;;;;;;7.57;2.97;;;17.00;99.90;;;;;;5009951;28;20420;-73
2022/10/24 08:36:52;;;;;;;4.30;2.60;;;17.20;99.90;;;;;;5001210;28;20977;-73
2022/10/24 08:39:18;;;;;;;3.53;2.17;;;17.20;99.90;;;;;;5000215;28;20200;-73
2022/10/24 08:41:54;;;;;;;4.30;3.10;;;17.50;99.90;;;;;;4999166;28;20420;-73
2022/10/24 08:44:22;;;;;;;8.90;2.80;;;17.40;99.90;;;;;;4993560;28;20417;-72
2022/10/24 08:47:26;;;;;;;3.47;2.47;;;17.60;99.90;;;;;;4999668;28;20902;-73
2022/10/24 08:50:15;;;;;;;5.73;2.53;;;17.90;99.90;;;;;;4981030;28;20413;-72
2022/10/24 08:52:45;;;;;;;5.60;2.40;;;17.70;99.90;;;;;;4995577;28;20500;-73
2022/10/24 08:55:21;;;;;;;3.43;2.30;;;17.60;99.90;;;;;;4998067;28;20527;-73
2022/10/24 08:57:53;;;;;;;2.70;2.33;;;17.50;99.90;;;;;;4981209;28;20428;-72
2022/10/24 09:00:25;;;;;;;4.70;2.90;;;17.60;99.90;;;;;;5004792;28;20452;-72
2022/10/24 09:02:58;;;;;;;4.47;2.43;;;17.50;99.90;;;;;;5005532;28;20477;-72
2022/10/24 09:05:35;;;;;;;9.70;2.73;;;17.40;99.90;;;;;;4994172;28;20436;-73
2022/10/24 09:08:14;;;;;;;2.80;2.20;;;17.50;99.90;;;;;;5001657;28;20477;-72
2022/10/24 09:10:47;;;;;;;4.07;2.63;;;17.40;99.90;;;;;;5019139;28;20440;-72
2022/10/24 09:13:14;;;;;;;5.90;2.63;;;17.60;99.90;;;;;;4997132;28;20412;-72
2022/10/24 09:15:43;;;;;;;10.27;3.20;;;17.60;99.90;;;;;;5008705;28;20543;-73
2022/10/24 09:18:21;;;;;;;4.50;2.20;;;17.50;99.90;;;;;;4999781;28;20491;-72
2022/10/24 09:20:49;;;;;;;5.20;2.43;;;17.50;99.90;;;;;;5001145;28;20456;-72
2022/10/24 09:23:16;;;;;;;9.93;2.70;;;17.50;99.90;;;;;;5008422;28;20858;-73
2022/10/24 09:25:46;;;;;;;5.10;3.30;;;17.60;99.90;;;;;;4996534;28;20417;-72
2022/10/24 09:28:12;;;;;;;5.23;2.40;;;17.50;99.90;;;;;;5005904;28;20413;-72
2022/10/24 09:30:38;;;;;;;5.27;2.57;;;17.50;99.90;;;;;;4993097;28;20420;-72
2022/10/24 09:33:27;;;;;;;3.93;1.90;;;17.60;99.90;;;;;;4991257;28;20534;-72
2022/10/24 09:35:55;;;;;;;9.93;2.90;;;17.50;99.90;;;;;;4990809;28;20563;-72
2022/10/24 09:38:32;;;;;;;2.77;2.20;;;17.60;99.90;;;;;;4992493;28;20409;-72
2022/10/24 09:41:01;;;;;;;2.70;2.27;;;17.70;99.90;;;;;;4991949;28;20430;-72
2022/10/24 09:43:54;;;;;;;6.20;2.20;;;17.70;99.90;;;;;;4993108;28;20450;-72
2022/10/24 09:46:27;;;;;;;7.20;2.50;;;17.70;99.90;;;;;;4992971;28;20890;-73
2022/10/24 09:48:53;;;;;;;6.03;1.97;;;17.80;99.90;;;;;;4997502;28;20424;-72
2022/10/24 09:51:27;;;;;;;5.87;3.40;;;17.90;99.90;;;;;;5004288;28;20492;-72
2022/10/24 09:53:58;;;;;;;4.63;2.17;;;18.00;99.90;;;;;;5005950;28;20173;-72
2022/10/24 09:56:39;;;;;;;5.07;2.30;;;18.00;99.90;;;;;;4996111;28;20460;-72
2022/10/24 09:59:37;;;;;;;3.70;2.20;;;18.00;99.90;;;;;;5012699;28;20409;-72
2022/10/24 10:02:33;;;;;;;6.37;2.70;;;18.10;99.90;;;;;;4970374;28;20466;-73
2022/10/24 10:05:02;;;;;;;5.70;2.07;;;18.10;99.90;;;;;;4983842;28;20412;-73
2022/10/24 10:07:39;;;;;;;6.00;1.90;;;18.00;99.90;;;;;;5003054;28;20444;-73
2022/10/24 10:10:24;;;;;;;4.43;2.23;;;18.00;99.90;;;;;;5007120;28;20930;-72
2022/10/24 10:13:17;;;;;;;3.97;2.53;;;18.10;99.90;;;;;;4987240;28;20435;-71
2022/10/24 10:15:42;;;;;;;5.17;2.33;;;18.20;99.90;;;;;;4995671;28;20555;-72
2022/10/24 10:18:28;;;;;;;4.67;2.63;;;18.30;99.90;;;;;;4997141;28;20502;-72
2022/10/24 10:21:20;;;;;;;3.20;2.73;;;18.40;99.90;;;;;;4982712;28;20165;-72
2022/10/24 10:23:54;;;;;;;6.47;3.23;;;18.40;99.90;;;;;;4993222;28;20451;-72
2022/10/24 10:26:26;;;;;;;7.30;2.87;;;18.40;99.90;;;;;;5008082;28;20433;-72
2022/10/24 10:28:55;;;;;;;4.97;2.00;;;18.40;99.90;;;;;;4996728;28;20422;-72
2022/10/24 10:31:36;;;;;;;6.83;2.60;;;18.40;99.90;;;;;;5003823;28;20419;-72
2022/10/24 10:34:30;;;;;;;3.80;1.43;;;18.50;99.90;;;;;;5005076;28;20455;-72
2022/10/24 10:37:21;;;;;;;4.90;2.37;;;18.40;99.90;;;;;;4979041;28;20989;-72
2022/10/24 10:40:06;;;;;;;4.83;1.77;;;18.50;99.90;;;;;;5000396;28;20425;-72
2022/10/24 10:42:55;;;;;;;4.40;1.70;;;18.50;99.90;;;;;;5003842;28;20433;-72
2022/10/24 10:46:04;;;;;;;4.70;2.33;;;18.50;99.90;;;;;;5007501;28;20413;-72
2022/10/24 10:48:57;;;;;;;4.53;3.10;;;18.50;99.90;;;;;;4970444;28;20413;-72
2022/10/24 10:51:55;;;;;;;4.30;2.20;;;18.50;99.90;;;;;;5001974;28;20417;-72
2022/10/24 10:54:26;;;;;;;4.10;2.30;;;18.50;99.90;;;;;;4997553;28;20408;-73
2022/10/24 10:57:05;;;;;;;3.97;1.60;;;18.60;99.90;;;;;;5008201;28;20547;-72
2022/10/24 10:59:40;;;;;;;7.17;2.43;;;18.50;99.90;;;;;;4997795;28;20930;-72
2022/10/24 11:02:24;;;;;;;4.80;2.50;;;18.50;99.90;;;;;;5008321;28;20462;-72
2022/10/24 11:05:01;;;;;;;3.43;2.10;;;18.50;99.90;;;;;;4984534;28;20403;-72
2022/10/24 11:07:59;;;;;;;3.60;3.30;;;18.50;99.90;;;;;;5014636;28;20444;-72
2022/10/24 11:10:30;;;;;;;3.10;1.80;;;18.60;99.90;;;;;;4990321;28;20421;-72
2022/10/24 11:12:58;;;;;;;2.77;2.03;;;18.50;99.90;;;;;;5006483;28;20418;-72
2022/10/24 11:15:31;;;;;;;3.20;1.97;;;18.60;99.90;;;;;;5000672;28;20451;-71
2022/10/24 11:18:21;;;;;;;4.70;2.23;;;18.50;99.90;;;;;;4998316;28;20437;-72
2022/10/24 11:21:03;;;;;;;3.07;1.77;;;18.60;99.90;;;;;;4980338;28;20402;-72
2022/10/24 11:23:48;;;;;;;4.97;2.87;;;18.70;99.90;;;;;;5002107;28;20496;-71
2022/10/24 11:26:29;;;;;;;5.10;1.63;;;18.70;99.90;;;;;;5007320;28;20428;-72
2022/10/24 11:29:15;;;;;;;4.87;3.80;;;18.70;99.90;;;;;;4996180;28;20418;-72
2022/10/24 11:32:31;;;;;;;2.63;1.87;;;18.70;99.90;;;;;;5002062;28;20419;-72
2022/10/24 11:35:39;;;;;;;3.23;1.97;;;18.70;99.90;;;;;;4977922;28;20417;-72
2022/10/24 11:38:19;;;;;;;4.00;2.17;;;18.80;99.90;;;;;;4999781;28;20425;-72
2022/10/24 11:40:49;;;;;;;3.50;2.10;;;18.80;99.90;;;;;;4984407;28;20758;-72
2022/10/24 11:43:27;;;;;;;2.67;1.80;;;18.80;99.90;;;;;;4996563;28;20406;-73
2022/10/24 11:46:19;;;;;;;4.77;2.10;;;18.80;99.90;;;;;;4994949;28;20464;-72
2022/10/24 11:48:59;;;;;;;3.47;2.23;;;18.70;99.90;;;;;;4983354;28;20412;-73
2022/10/24 11:51:39;;;;;;;2.13;1.70;;;18.70;99.90;;;;;;5005773;28;20423;-72
2022/10/24 11:54:29;;;;;;;2.70;1.70;;;18.70;99.90;;;;;;5009519;28;20435;-71
2022/10/24 11:57:03;;;;;;;9.70;2.70;;;18.60;99.90;;;;;;4985112;28;20681;-73
2022/10/24 11:59:29;;;;;;;3.40;1.80;;;18.70;99.90;;;;;;5004757;28;20991;-72
2022/10/24 12:01:55;;;;;;;6.00;2.30;;;18.70;99.90;;;;;;5008078;28;20421;-72
2022/10/24 12:04:42;;;;;;;5.33;1.83;;;18.80;99.90;;;;;;4998433;28;21008;-72
2022/10/24 12:07:58;;;;;;;3.40;1.93;;;18.70;99.90;;;;;;4998263;28;20671;-72
2022/10/24 12:10:46;;;;;;;2.67;2.00;;;18.80;99.90;;;;;;5020927;22;20534;-72
2022/10/24 12:13:29;;;;;;;7.27;2.10;;;18.80;99.90;;;;;;5028461;28;20451;-70
2022/10/24 12:16:30;;;;;;;7.93;2.30;;;18.80;99.90;;;;;;5023357;28;20704;-70
2022/10/24 12:19:00;;;;;;;4.63;1.80;;;18.90;99.90;;;;;;5004319;28;20437;-71
2022/10/24 12:21:32;;;;;;;7.10;2.37;;;18.90;99.90;;;;;;5008344;28;20530;-70
2022/10/24 12:24:00;;;;;;;7.10;2.20;;;18.90;99.90;;;;;;5008524;28;20439;-72
2022/10/24 12:26:31;;;;;;;4.93;2.17;;;18.90;99.90;;;;;;5008181;28;20427;-71
2022/10/24 12:29:03;;;;;;;8.23;2.67;;;19.00;99.90;;;;;;5010090;28;20432;-71
2022/10/24 12:31:32;;;;;;;7.53;2.60;;;19.10;99.90;;;;;;5012094;28;20443;-70
2022/10/24 12:34:20;;;;;;;6.33;3.23;;;19.00;99.90;;;;;;5012072;28;20414;-70
2022/10/24 12:37:08;;;;;;;4.20;2.00;;;19.00;99.90;;;;;;5009775;28;20980;-71
2022/10/24 12:39:54;;;;;;;5.20;2.10;;;19.00;99.90;;;;;;5011687;28;20433;-70
2022/10/24 12:42:23;;;;;;;5.03;2.37;;;19.00;99.90;;;;;;5012241;28;20445;-70
2022/10/24 12:45:08;;;;;;;3.53;2.43;;;19.10;99.90;;;;;;5010136;28;20419;-70
2022/10/24 12:47:36;;;;;;;3.73;1.60;;;19.10;99.90;;;;;;5004418;28;20501;-71
2022/10/24 12:50:22;;;;;;;5.17;2.23;;;19.00;99.90;;;;;;5013869;28;20438;-71
2022/10/24 12:52:49;;;;;;;14.60;2.07;;;19.00;99.90;;;;;;5009944;28;20963;-71
2022/10/24 12:55:37;;;;;;;3.97;2.07;;;19.00;99.90;;;;;;5010003;28;20479;-71
2022/10/24 12:58:27;;;;;;;5.90;2.33;;;19.00;99.90;;;;;;5012201;28;20523;-70
2022/10/24 13:00:59;;;;;;;3.97;1.90;;;19.00;99.90;;;;;;5011321;28;20479;-71
2022/10/24 13:03:46;;;;;;;3.87;2.43;;;19.10;99.90;;;;;;5009342;28;20419;-71
2022/10/24 13:06:18;;;;;;;7.10;3.63;;;19.30;99.90;;;;;;5006908;28;20511;-71
2022/10/24 13:09:04;;;;;;;3.90;2.00;;;19.40;99.90;;;;;;5026690;28;20502;-70